createdAt,value
2018-08-20T12:43:44.886Z,26.50
2018-08-20T12:46:12.250Z,26.50
2018-08-20T12:48:39.572Z,26.50
2018-08-20T12:51:06.844Z,26.50
2018-08-20T12:53:34.082Z,26.50
2018-08-20T12:56:01.372Z,26.50
2018-08-20T12:58:28.585Z,26.30
2018-08-20T13:00:55.947Z,26.40
2018-08-20T13:03:23.310Z,26.40
2018-08-20T13:05:50.700Z,26.50
2018-08-20T13:08:18.003Z,26.80
2018-08-20T13:10:45.211Z,27.20
2018-08-20T13:13:12.573Z,27.30
2018-08-20T13:15:39.884Z,27.30
2018-08-20T13:18:07.139Z,27.30
2018-08-20T13:56:54.567Z,25.80
2018-08-20T13:59:21.942Z,25.80
2018-08-20T14:01:49.370Z,26.00
2018-08-20T14:04:16.591Z,25.90
2018-08-20T14:06:43.871Z,25.50
2018-08-20T14:09:11.481Z,25.50
2018-08-20T14:11:38.728Z,25.00
2018-08-20T14:14:06.243Z,24.60
2018-08-20T14:16:33.647Z,24.60
2018-08-20T14:19:01.031Z,24.30
2018-08-20T14:21:28.395Z,23.70
2018-08-20T14:23:55.695Z,23.80
2018-08-20T14:26:22.894Z,23.70
2018-08-20T14:28:50.155Z,23.60
2018-08-20T14:31:17.463Z,23.70
2018-08-20T14:33:44.694Z,23.60
2018-08-20T14:36:12.047Z,23.50
2018-08-20T14:38:39.564Z,23.40
2018-08-20T14:41:07.288Z,23.20
2018-08-20T14:43:35.060Z,23.20
2018-08-20T14:46:08.107Z,23.40
2018-08-20T14:48:35.370Z,23.40
2018-08-20T14:51:02.883Z,23.60
2018-08-20T14:53:30.148Z,23.90
2018-08-20T14:55:57.383Z,23.80
2018-08-20T14:58:24.695Z,23.90
2018-08-20T15:00:52.092Z,23.90
2018-08-20T15:03:19.550Z,23.90
2018-08-20T15:05:46.830Z,23.90
2018-08-20T15:08:14.094Z,23.90
2018-08-20T15:10:41.394Z,23.90
2018-08-20T15:13:08.620Z,23.90
2018-08-20T15:15:36.067Z,24.00
2018-08-20T15:18:03.202Z,24.00
2018-08-20T15:20:30.483Z,24.10
2018-08-20T15:22:57.784Z,23.90
2018-08-20T15:25:25.171Z,23.80
2018-08-20T15:27:52.434Z,23.60
2018-08-20T15:30:19.710Z,23.60
2018-08-20T15:32:47.168Z,23.50
2018-08-20T15:35:14.415Z,23.60
2018-08-20T15:37:41.747Z,23.50
2018-08-20T15:40:09.055Z,23.30
2018-08-20T15:42:36.322Z,23.30
2018-08-20T15:50:46.500Z,23.30
2018-08-20T15:53:13.723Z,23.30
2018-08-20T15:55:40.999Z,23.30
2018-08-20T15:58:08.295Z,23.40
2018-08-20T16:00:35.554Z,23.50
2018-08-20T16:03:02.873Z,23.40
2018-08-20T16:05:30.169Z,23.40
2018-08-20T16:07:57.438Z,23.40
2018-08-20T16:10:24.752Z,23.40
2018-08-20T16:12:52.180Z,23.40
2018-08-20T16:15:19.445Z,23.50
2018-08-20T16:17:46.679Z,23.60
2018-08-20T16:20:13.977Z,23.60
2018-08-20T16:22:41.226Z,23.70
2018-08-20T16:25:08.611Z,23.60
2018-08-20T16:27:36.021Z,23.70
2018-08-20T16:30:06.255Z,23.50
2018-08-20T16:32:33.682Z,23.40
2018-08-20T16:35:00.904Z,23.30
2018-08-20T16:37:28.271Z,23.40
2018-08-20T16:39:55.634Z,23.40
2018-08-20T16:42:22.960Z,23.60
2018-08-20T16:44:50.294Z,23.60
2018-08-20T16:47:17.549Z,23.50
2018-08-20T16:49:45.050Z,23.30
2018-08-20T16:52:12.307Z,23.30
2018-08-20T16:54:39.554Z,23.30
2018-08-20T16:57:06.885Z,23.20
2018-08-20T16:59:34.274Z,23.00
2018-08-20T17:02:01.599Z,23.00
2018-08-20T17:04:30.850Z,22.90
2018-08-20T17:06:59.588Z,22.80
2018-08-20T17:09:27.135Z,22.80
2018-08-20T17:11:54.387Z,22.80
2018-08-20T17:14:21.666Z,22.70
2018-08-20T17:16:48.914Z,22.60
2018-08-20T17:19:16.271Z,22.60
2018-08-20T17:21:43.567Z,22.50
2018-08-20T17:24:10.859Z,22.50
2018-08-20T17:26:38.087Z,22.40
2018-08-20T17:29:10.686Z,22.30
2018-08-20T17:31:39.610Z,22.30
2018-08-20T17:34:07.805Z,22.20
2018-08-20T17:36:37.986Z,22.20
2018-08-20T17:39:08.524Z,22.20
2018-08-20T17:41:39.139Z,22.20
2018-08-20T17:44:07.345Z,22.10
2018-08-20T17:46:35.027Z,22.20
2018-08-20T17:49:03.473Z,22.20
2018-08-20T17:51:30.714Z,22.20
2018-08-20T17:53:58.562Z,22.10
2018-08-20T17:56:25.914Z,22.10
2018-08-20T17:59:01.995Z,22.10
2018-08-20T18:01:33.921Z,22.10
2018-08-20T18:04:01.260Z,22.00
2018-08-20T18:06:43.487Z,22.00
2018-08-20T18:09:10.894Z,21.90
2018-08-20T18:11:50.164Z,21.90
2018-08-20T18:14:18.658Z,21.80
2018-08-20T18:16:46.171Z,21.70
2018-08-20T18:19:13.587Z,21.70
2018-08-20T18:21:40.794Z,21.70
2018-08-20T18:24:13.735Z,21.70
2018-08-20T18:26:45.279Z,21.70
2018-08-20T18:29:12.746Z,21.60
2018-08-20T18:31:40.048Z,21.60
2018-08-20T18:34:07.270Z,21.50
2018-08-20T18:36:34.566Z,21.50
2018-08-20T18:39:10.536Z,21.40
2018-08-20T18:42:09.882Z,21.40
2018-08-20T18:44:37.194Z,21.40
2018-08-20T18:47:06.087Z,21.30
2018-08-20T18:49:36.936Z,21.30
2018-08-20T18:52:10.174Z,21.30
2018-08-20T18:54:39.753Z,21.30
2018-08-20T18:57:07.022Z,21.30
2018-08-20T18:59:35.683Z,21.30
2018-08-20T19:02:03.126Z,21.30
2018-08-20T19:04:48.165Z,21.30
2018-08-20T19:07:15.923Z,21.30
2018-08-20T19:09:48.871Z,21.20
2018-08-20T19:12:16.463Z,21.10
2018-08-20T19:14:43.778Z,21.20
2018-08-20T19:17:16.323Z,21.10
2018-08-20T19:19:46.559Z,21.10
2018-08-20T19:22:19.751Z,21.10
2018-08-20T19:24:47.032Z,21.20
2018-08-20T19:27:14.267Z,21.10
2018-08-20T19:29:41.515Z,21.10
2018-08-20T19:32:09.127Z,21.10
2018-08-20T19:34:36.746Z,21.10
2018-08-20T19:37:04.607Z,21.10
2018-08-20T19:39:31.995Z,21.00
2018-08-20T19:41:59.294Z,21.00
2018-08-20T19:44:26.534Z,21.00
2018-08-20T19:46:54.468Z,21.00
2018-08-20T19:49:23.046Z,21.00
2018-08-20T19:51:50.219Z,21.00
2018-08-20T19:54:17.414Z,21.00
2018-08-20T19:56:44.666Z,21.00
2018-08-20T19:59:12.543Z,20.90
2018-08-20T20:01:39.766Z,20.90
2018-08-20T20:04:12.634Z,20.90
2018-08-20T20:06:40.290Z,20.90
2018-08-20T20:09:09.006Z,20.90
2018-08-20T20:11:41.674Z,20.90
2018-08-20T20:14:08.858Z,20.80
2018-08-20T20:16:41.882Z,20.90
2018-08-20T20:19:09.693Z,20.90
2018-08-20T20:21:37.151Z,20.90
2018-08-20T20:24:04.443Z,21.00
2018-08-20T20:26:31.716Z,21.00
2018-08-20T20:28:58.935Z,20.90
2018-08-20T20:31:26.150Z,20.90
2018-08-20T20:33:53.398Z,20.80
2018-08-20T20:36:26.922Z,20.80
2018-08-20T20:38:54.702Z,20.70
2018-08-20T20:41:22.231Z,20.70
2018-08-20T20:43:49.494Z,20.70
2018-08-20T20:46:16.749Z,20.50
2018-08-20T20:48:43.987Z,20.40
2018-08-20T20:51:11.254Z,20.40
2018-08-20T20:53:38.547Z,20.40
2018-08-20T20:56:05.777Z,20.40
2018-08-20T20:58:33.526Z,20.40
2018-08-20T21:01:02.368Z,20.40
2018-08-20T21:03:30.100Z,20.40
2018-08-20T21:05:57.570Z,20.40
2018-08-20T21:08:27.363Z,20.40
2018-08-20T21:10:54.663Z,20.40
2018-08-20T21:13:21.915Z,20.40
2018-08-20T21:15:57.738Z,20.40
2018-08-20T21:18:25.444Z,20.40
2018-08-20T21:20:53.054Z,20.40
2018-08-20T21:23:20.278Z,20.40
2018-08-20T21:25:47.538Z,20.40
2018-08-20T21:28:14.782Z,20.40
2018-08-20T21:30:44.080Z,20.40
2018-08-20T21:33:12.450Z,20.40
2018-08-20T21:35:39.916Z,20.30
2018-08-20T21:38:07.110Z,20.30
2018-08-20T21:40:34.664Z,20.30
2018-08-20T21:43:02.131Z,20.30
2018-08-20T21:45:29.535Z,20.30
2018-08-20T21:47:56.818Z,20.20
2018-08-20T21:50:24.062Z,20.30
2018-08-20T21:52:51.343Z,20.30
2018-08-20T21:55:18.610Z,20.30
2018-08-20T21:57:55.246Z,20.20
2018-08-20T22:00:22.622Z,20.20
2018-08-20T22:02:54.667Z,20.20
2018-08-20T22:05:21.874Z,20.20
2018-08-20T22:07:49.285Z,20.20
2018-08-20T22:10:16.661Z,20.20
2018-08-20T22:12:44.166Z,20.20
2018-08-20T22:15:11.503Z,20.20
2018-08-20T22:17:41.055Z,20.20
2018-08-20T22:20:08.399Z,20.20
2018-08-20T22:22:36.766Z,20.10
2018-08-20T22:25:11.391Z,20.10
2018-08-20T22:27:44.295Z,20.00
2018-08-20T22:30:11.595Z,19.90
2018-08-20T22:32:38.834Z,19.80
2018-08-20T22:35:12.643Z,19.80
2018-08-20T22:37:40.206Z,19.70
2018-08-20T22:40:07.959Z,19.70
2018-08-20T22:42:44.558Z,19.70
2018-08-20T22:45:14.068Z,19.80
2018-08-20T22:47:41.724Z,19.80
2018-08-20T22:50:09.246Z,19.80
2018-08-20T22:52:36.556Z,19.80
2018-08-20T22:55:05.196Z,19.80
2018-08-20T22:57:32.486Z,19.80
2018-08-20T23:00:02.476Z,19.80
2018-08-20T23:02:29.972Z,19.70
2018-08-20T23:05:01.651Z,19.70
2018-08-20T23:07:29.233Z,19.70
2018-08-20T23:09:57.680Z,19.70
2018-08-20T23:12:32.952Z,19.60
2018-08-20T23:15:00.747Z,19.60
2018-08-20T23:17:29.805Z,19.60
2018-08-20T23:19:58.926Z,19.60
2018-08-20T23:22:26.966Z,19.70
2018-08-20T23:24:56.683Z,19.70
2018-08-20T23:27:30.619Z,19.60
2018-08-20T23:29:58.437Z,19.60
2018-08-20T23:32:26.103Z,19.60
2018-08-20T23:34:55.395Z,19.50
2018-08-20T23:37:22.913Z,19.60
2018-08-20T23:39:50.139Z,19.60
2018-08-20T23:42:17.467Z,19.60
2018-08-20T23:44:44.702Z,19.50
2018-08-20T23:47:11.970Z,19.50
2018-08-20T23:49:39.222Z,19.40
2018-08-20T23:52:06.639Z,19.40
2018-08-20T23:54:33.863Z,19.40
2018-08-20T23:57:02.150Z,19.30
2018-08-20T23:59:29.420Z,19.30
